TimeAST,TemperatureF,Dew PointF,Humidity,Sea Level PressureIn,VisibilityMPH,Wind Direction,Wind SpeedMPH,Gust SpeedMPH,PrecipitationIn,Events,Conditions,WindDirDegrees,DateUTC
12:00 AM,75.2,66.2,73,30.04,6.2,East,10.4,-,N/A,Rain,Light Rain Showers,80,2013-01-17 04:00:00
1:00 AM,77.0,66.2,69,30.01,6.2,East,10.4,-,N/A,,Scattered Clouds,80,2013-01-17 05:00:00
2:00 AM,75,66,68,30.01,25,East,11.5,,,,Scattered Clouds,80,2013-01-17 06:00:00
2:00 AM,75.2,66.2,73,30.01,6.2,ENE,11.5,-,N/A,,Partly Cloudy,70,2013-01-17 06:00:00
3:00 AM,75.2,66.2,73,29.98,5.6,East,11.5,-,N/A,Rain,Light Rain Showers,80,2013-01-17 07:00:00
4:00 AM,77.0,64.4,65,29.98,6.2,East,16.1,-,N/A,,Scattered Clouds,80,2013-01-17 08:00:00
5:00 AM,76,64,58,29.99,25,East,15.0,,,,Partly Cloudy,90,2013-01-17 09:00:00
5:00 AM,77.0,64.4,65,29.98,6.2,ENE,15.0,-,N/A,,Scattered Clouds,70,2013-01-17 09:00:00
6:00 AM,77.0,64.4,65,30.01,6.2,East,13.8,-,N/A,,Mostly Cloudy,80,2013-01-17 10:00:00
7:00 AM,77.0,62.6,61,30.01,6.2,East,13.8,-,N/A,,Partly Cloudy,80,2013-01-17 11:00:00
8:00 AM,78,63,51,30.06,37,East,11.5,,,,,100,2013-01-17 12:00:00
8:00 AM,78.8,64.4,61,30.04,6.2,East,11.5,-,N/A,,Partly Cloudy,80,2013-01-17 12:00:00
9:00 AM,78.8,64.4,61,30.06,6.2,East,9.2,-,N/A,,Scattered Clouds,90,2013-01-17 13:00:00
10:00 AM,82.4,66.2,58,30.06,6.2,East,15.0,-,N/A,,Mostly Cloudy,80,2013-01-17 14:00:00
11:00 AM,81,67,54,30.07,19,East,12.7,,,,Partly Cloudy,100,2013-01-17 15:00:00
11:00 AM,80.6,66.2,61,30.06,6.2,East,12.7,-,N/A,,Scattered Clouds,100,2013-01-17 15:00:00
12:00 PM,82.4,66.2,58,30.04,6.2,East,13.8,-,N/A,,Mostly Cloudy,90,2013-01-17 16:00:00
1:00 PM,82.4,66.2,58,30.01,6.2,East,13.8,-,N/A,,Partly Cloudy,100,2013-01-17 17:00:00
2:00 PM,83,66,48,29.99,19,East,15.0,,,,,80,2013-01-17 18:00:00
2:00 PM,82.4,66.2,58,29.98,6.2,East,15.0,-,N/A,,Scattered Clouds,80,2013-01-17 18:00:00
2:39 PM,80.6,68.0,65,29.98,5.0,East,13.8,-,N/A,Rain,Rain Showers,90,2013-01-17 18:39:00
3:00 PM,80.6,68.0,65,29.98,6.2,East,13.8,-,N/A,Rain,Light Rain Showers,80,2013-01-17 19:00:00
4:00 PM,75.2,68.0,78,30.01,6.2,East,12.7,-,N/A,Rain,Light Rain Showers,80,2013-01-17 20:00:00
4:23 PM,75.2,66.2,73,30.01,5.0,East,11.5,-,N/A,Rain,Light Rain Showers,90,2013-01-17 20:23:00
5:00 PM,75,70,79,30.02,9,East,10.4,,,Rain,Light Rain Showers,80,2013-01-17 21:00:00
5:00 PM,75.2,69.8,83,30.01,6.2,East,10.4,-,N/A,Rain,Light Rain Showers,80,2013-01-17 21:00:00
6:00 PM,77.0,66.2,69,30.01,6.2,East,13.8,-,N/A,,Mostly Cloudy,90,2013-01-17 22:00:00
7:00 PM,77.0,69.8,78,30.04,6.2,East,9.2,-,N/A,,Mostly Cloudy,80,2013-01-17 23:00:00
8:00 PM,77,69,70,30.07,16,East,12.7,,,Rain,Light Rain Showers,80,2013-01-18 00:00:00
8:00 PM,77.0,69.8,78,30.06,6.2,East,12.7,-,N/A,Rain,Light Rain Showers,80,2013-01-18 00:00:00
9:00 PM,77.0,68.0,74,30.06,6.2,East,13.8,-,N/A,,Mostly Cloudy,90,2013-01-18 01:00:00
10:00 PM,77.0,68.0,74,30.06,6.2,East,17.3,-,N/A,,Scattered Clouds,80,2013-01-18 02:00:00
11:00 PM,77,68,67,30.06,5,East,13.8,,,Rain,Rain,90,2013-01-18 03:00:00
11:00 PM,75.2,68.0,78,30.06,5.0,East,12.7,-,N/A,Rain,Rain,90,2013-01-18 03:00:00